createdAt,value
2022-11-18T00:00:30.364Z,20.90
2022-11-18T00:02:32.527Z,19.23
2022-11-18T00:04:34.674Z,21.57
2022-11-18T00:06:36.805Z,19.13
2022-11-18T00:08:39.047Z,20.80
2022-11-18T00:10:41.203Z,20.90
2022-11-18T00:13:01.942Z,19.47
2022-11-18T00:15:04.234Z,20.73
2022-11-18T00:17:07.230Z,20.10
2022-11-18T00:19:09.357Z,20.10
2022-11-18T00:21:12.207Z,19.43
2022-11-18T00:23:14.316Z,19.90
2022-11-18T00:25:16.485Z,21.13
2022-11-18T00:27:18.551Z,21.90
2022-11-18T00:29:21.676Z,19.47
2022-11-18T00:31:23.937Z,19.43
2022-11-18T00:33:26.169Z,19.30
2022-11-18T00:35:29.510Z,21.27
2022-11-18T00:37:31.616Z,19.77
2022-11-18T00:39:33.770Z,19.90
2022-11-18T00:41:54.471Z,19.90
2022-11-18T00:43:56.553Z,20.07
2022-11-18T00:45:58.719Z,19.23
2022-11-18T00:48:00.813Z,20.00
2022-11-18T00:50:02.956Z,19.90
2022-11-18T00:52:05.709Z,19.23
2022-11-18T00:54:08.002Z,21.20
2022-11-18T00:56:10.309Z,22.13
2022-11-18T00:58:14.471Z,19.30
2022-11-18T01:00:16.971Z,19.17
2022-11-18T01:02:19.091Z,19.43
2022-11-18T01:04:21.239Z,21.47
2022-11-18T01:06:23.669Z,19.10
2022-11-18T01:08:26.093Z,17.60
2022-11-18T01:10:28.276Z,17.43
2022-11-18T01:12:53.969Z,19.00
2022-11-18T01:14:56.478Z,18.60
2022-11-18T01:16:58.673Z,16.97
2022-11-18T01:19:00.923Z,19.13
2022-11-18T01:21:03.955Z,18.13
2022-11-18T01:23:06.105Z,18.93
2022-11-18T01:25:08.641Z,18.27
2022-11-18T01:27:10.772Z,19.07
2022-11-18T01:29:12.973Z,18.33
2022-11-18T01:31:17.837Z,19.97
2022-11-18T01:33:19.990Z,18.50
2022-11-18T01:35:22.154Z,18.70
2022-11-18T01:37:24.303Z,20.07
2022-11-18T01:39:26.416Z,19.40
2022-11-18T01:41:28.516Z,21.77
2022-11-18T01:43:48.375Z,18.50
2022-11-18T01:45:52.216Z,18.83
2022-11-18T01:48:02.047Z,19.60
2022-11-18T01:50:05.386Z,17.80
2022-11-18T01:52:08.022Z,18.20
2022-11-18T01:54:14.433Z,20.33
2022-11-18T01:56:22.013Z,20.80
2022-11-18T01:58:27.842Z,18.90
2022-11-18T02:00:30.022Z,20.23
2022-11-18T02:02:34.278Z,21.90
2022-11-18T02:04:36.684Z,20.90
2022-11-18T02:06:38.988Z,21.10
2022-11-18T02:08:42.012Z,26.57
2022-11-18T02:10:44.216Z,20.83
2022-11-18T02:12:46.693Z,25.57
2022-11-18T02:14:49.041Z,23.10
2022-11-18T02:17:28.927Z,19.57
2022-11-18T02:19:46.559Z,21.33
2022-11-18T02:22:21.200Z,22.07
2022-11-18T02:24:36.310Z,23.13
2022-11-18T02:27:12.157Z,21.47
2022-11-18T02:29:45.330Z,21.90
2022-11-18T02:31:57.687Z,21.40
2022-11-18T02:34:47.147Z,21.87
2022-11-18T02:37:03.191Z,22.70
2022-11-18T02:39:13.489Z,24.37
2022-11-18T02:41:26.311Z,24.80
2022-11-18T02:43:31.959Z,21.33
2022-11-18T02:45:35.163Z,24.60
2022-11-18T02:47:37.621Z,25.50
2022-11-18T02:49:43.772Z,24.37
2022-11-18T02:51:47.312Z,29.50
2022-11-18T02:53:50.151Z,26.27
2022-11-18T02:55:52.897Z,27.77
2022-11-18T02:57:56.742Z,24.17
2022-11-18T02:59:58.846Z,25.40
2022-11-18T03:02:01.107Z,21.80
2022-11-18T03:04:03.397Z,23.43
2022-11-18T03:06:15.677Z,24.20
2022-11-18T03:08:22.181Z,25.97
2022-11-18T03:10:26.640Z,24.17
2022-11-18T03:12:47.072Z,22.67
2022-11-18T03:14:56.973Z,23.40
2022-11-18T03:17:01.497Z,23.93
2022-11-18T03:19:29.842Z,23.20
2022-11-18T03:21:41.677Z,21.40
2022-11-18T03:23:51.742Z,23.10
2022-11-18T03:26:02.564Z,22.97
2022-11-18T03:28:12.246Z,24.60
2022-11-18T03:30:17.790Z,28.03
2022-11-18T03:32:24.989Z,23.17
2022-11-18T03:34:49.072Z,24.10
2022-11-18T03:36:58.369Z,21.33
2022-11-18T03:39:03.685Z,22.53
2022-11-18T03:41:09.623Z,23.07
2022-11-18T03:43:19.258Z,23.37
2022-11-18T03:45:29.071Z,24.80
2022-11-18T03:47:37.211Z,21.30
2022-11-18T03:49:53.709Z,21.40
2022-11-18T03:52:01.012Z,25.30
2022-11-18T03:54:08.867Z,21.37
2022-11-18T03:56:17.399Z,23.43
2022-11-18T03:58:25.608Z,21.33
2022-11-18T04:00:31.306Z,20.40
2022-11-18T04:02:33.805Z,20.97
2022-11-18T04:04:36.079Z,23.13
2022-11-18T04:06:42.688Z,19.30
2022-11-18T04:08:46.387Z,22.23
2022-11-18T04:11:47.132Z,21.83
2022-11-18T04:13:49.323Z,23.43
2022-11-18T04:15:51.800Z,21.70
2022-11-18T04:17:53.996Z,20.73
2022-11-18T04:19:56.303Z,24.03
2022-11-18T04:21:58.416Z,22.10
2022-11-18T04:24:00.592Z,19.80
2022-11-18T04:26:02.719Z,25.00
2022-11-18T04:28:05.467Z,23.07
2022-11-18T04:30:08.318Z,21.80
2022-11-18T04:32:10.520Z,23.43
2022-11-18T04:34:12.680Z,25.77
2022-11-18T04:36:14.826Z,23.70
2022-11-18T04:38:21.741Z,25.00
2022-11-18T04:40:24.323Z,23.80
2022-11-18T04:42:26.582Z,26.57
2022-11-18T04:44:33.439Z,28.00
2022-11-18T04:46:35.537Z,25.90
2022-11-18T04:48:37.621Z,26.90
2022-11-18T04:50:39.783Z,23.23
2022-11-18T04:52:42.144Z,27.00
2022-11-18T04:54:44.328Z,27.73
2022-11-18T04:56:49.438Z,23.93
2022-11-18T04:58:52.061Z,23.80
2022-11-18T05:00:54.256Z,23.27
2022-11-18T05:02:56.397Z,22.20
2022-11-18T05:04:58.592Z,22.80
2022-11-18T05:07:02.294Z,26.17
2022-11-18T05:09:04.623Z,23.90
2022-11-18T05:11:26.452Z,24.70
2022-11-18T05:13:28.536Z,25.83
2022-11-18T05:15:30.647Z,23.53
2022-11-18T05:17:35.290Z,24.60
2022-11-18T05:19:39.357Z,25.80
2022-11-18T05:21:41.465Z,25.57
2022-11-18T05:23:43.708Z,26.50
2022-11-18T05:25:45.817Z,28.77
2022-11-18T05:27:47.953Z,24.90
2022-11-18T05:29:50.084Z,23.53
2022-11-18T05:31:52.251Z,27.10
2022-11-18T05:33:54.835Z,23.90
2022-11-18T05:35:56.958Z,23.70
2022-11-18T05:37:59.189Z,26.90
2022-11-18T05:40:01.366Z,26.00
2022-11-18T05:42:22.426Z,25.37
2022-11-18T05:44:24.549Z,23.67
2022-11-18T05:46:27.135Z,24.10
2022-11-18T05:48:29.771Z,23.77
2022-11-18T05:50:33.740Z,25.77
2022-11-18T05:52:35.885Z,25.00
2022-11-18T05:54:49.414Z,26.40
2022-11-18T05:56:51.501Z,30.40
2022-11-18T05:58:53.598Z,28.37
2022-11-18T06:00:57.021Z,31.40
2022-11-18T06:02:59.676Z,28.53
2022-11-18T06:05:03.460Z,31.17
2022-11-18T06:07:18.614Z,30.23
2022-11-18T06:09:24.300Z,28.10
2022-11-18T06:11:26.889Z,30.80
2022-11-18T06:13:40.006Z,29.30
2022-11-18T06:15:43.853Z,27.83
2022-11-18T06:17:53.326Z,33.07
2022-11-18T06:19:55.530Z,29.57
2022-11-18T06:21:58.619Z,28.50
2022-11-18T06:24:02.529Z,30.60
2022-11-18T06:26:05.923Z,35.60
2022-11-18T06:28:10.329Z,37.07
2022-11-18T06:30:13.151Z,36.33
2022-11-18T06:32:15.600Z,31.00
2022-11-18T06:34:17.803Z,33.03
2022-11-18T06:36:19.964Z,36.70
2022-11-18T06:38:24.492Z,31.13
2022-11-18T06:40:31.672Z,32.03
2022-11-18T06:42:55.294Z,34.07
2022-11-18T06:44:57.495Z,28.40
2022-11-18T06:46:59.671Z,31.03
2022-11-18T06:49:02.761Z,28.33
2022-11-18T06:51:06.365Z,35.33
2022-11-18T06:53:08.481Z,33.23
2022-11-18T06:55:10.705Z,36.60
2022-11-18T06:57:12.873Z,33.67
2022-11-18T06:59:15.413Z,33.27
2022-11-18T07:01:21.836Z,31.23
2022-11-18T07:03:24.134Z,28.87
2022-11-18T07:05:26.225Z,29.90
2022-11-18T07:07:28.555Z,25.87
2022-11-18T07:09:30.745Z,35.40
2022-11-18T07:11:33.553Z,28.60
2022-11-18T07:13:42.177Z,27.57
2022-11-18T07:15:45.740Z,28.17
2022-11-18T07:17:47.927Z,25.93
2022-11-18T07:19:50.054Z,25.23
2022-11-18T07:21:52.160Z,28.60
2022-11-18T07:23:55.865Z,25.70
2022-11-18T07:25:58.213Z,25.30
2022-11-18T07:28:00.336Z,24.63
2022-11-18T07:30:02.488Z,22.67
2022-11-18T07:32:04.873Z,22.47
2022-11-18T07:34:08.023Z,24.67
2022-11-18T07:36:17.557Z,23.83
2022-11-18T07:38:19.753Z,26.80
2022-11-18T07:40:21.830Z,22.37
2022-11-18T07:42:23.974Z,24.70
2022-11-18T07:44:26.206Z,21.30
2022-11-18T07:46:36.046Z,20.90
2022-11-18T07:48:38.251Z,19.23
2022-11-18T07:50:45.855Z,19.30
2022-11-18T07:52:49.253Z,19.80
2022-11-18T07:54:51.407Z,19.80
2022-11-18T07:56:53.801Z,20.00
2022-11-18T07:58:56.287Z,19.60
2022-11-18T08:00:58.707Z,19.07
2022-11-18T08:03:00.900Z,18.30
2022-11-18T08:05:03.207Z,20.57
2022-11-18T08:07:05.523Z,21.50
2022-11-18T08:09:08.744Z,20.37
2022-11-18T08:11:18.847Z,21.00
2022-11-18T08:13:24.584Z,22.20
2022-11-18T08:15:26.751Z,21.40
2022-11-18T08:17:28.977Z,23.20
2022-11-18T08:19:31.089Z,22.70
2022-11-18T08:21:33.303Z,17.50
2022-11-18T08:23:41.521Z,18.87
2022-11-18T08:25:45.468Z,19.87
2022-11-18T08:27:47.617Z,17.70
2022-11-18T08:29:49.842Z,19.07
2022-11-18T08:31:51.988Z,16.50
2022-11-18T08:33:57.774Z,17.27
2022-11-18T08:36:09.430Z,16.60
2022-11-18T08:38:11.534Z,17.13
2022-11-18T08:40:13.954Z,17.23
2022-11-18T08:42:16.045Z,16.53
2022-11-18T08:44:18.271Z,17.97
2022-11-18T08:46:20.961Z,18.77
2022-11-18T08:48:23.068Z,17.60
2022-11-18T08:50:25.279Z,17.00
2022-11-18T08:52:27.513Z,16.47
2022-11-18T08:54:29.707Z,16.67
2022-11-18T08:56:32.005Z,17.57
2022-11-18T08:58:34.112Z,18.10
2022-11-18T09:00:36.282Z,17.70
2022-11-18T09:02:38.389Z,17.70
2022-11-18T09:04:40.549Z,17.30
2022-11-18T09:06:42.682Z,17.90
2022-11-18T09:08:45.278Z,17.10
2022-11-18T09:10:47.490Z,14.93
2022-11-18T09:12:49.597Z,16.40
2022-11-18T09:15:13.467Z,18.00
2022-11-18T09:17:15.192Z,18.20
2022-11-18T09:19:45.482Z,14.83
2022-11-18T09:21:41.107Z,16.00
2022-11-18T09:23:43.673Z,14.77
2022-11-18T09:25:45.767Z,15.97
2022-11-18T09:27:47.935Z,12.83
2022-11-18T09:29:50.032Z,16.97
2022-11-18T09:31:53.162Z,15.50
2022-11-18T09:33:55.344Z,14.00
2022-11-18T09:35:57.469Z,15.37
2022-11-18T09:37:59.748Z,14.43
2022-11-18T09:40:01.934Z,13.37
2022-11-18T09:42:56.488Z,15.70
2022-11-18T09:45:23.651Z,15.37
2022-11-18T09:47:26.683Z,15.27
2022-11-18T09:49:39.494Z,14.93
2022-11-18T09:51:47.689Z,13.73
2022-11-18T09:53:49.930Z,14.87
2022-11-18T09:55:52.673Z,13.87
2022-11-18T09:57:58.089Z,15.57
2022-11-18T10:00:01.153Z,15.50
2022-11-18T10:02:37.097Z,14.50
2022-11-18T10:04:39.445Z,14.33
2022-11-18T10:06:41.681Z,13.37
2022-11-18T10:09:06.290Z,14.73
2022-11-18T10:11:12.287Z,16.00
2022-11-18T10:13:32.672Z,15.57
2022-11-18T10:15:36.925Z,15.40
2022-11-18T10:17:51.400Z,15.17
2022-11-18T10:20:00.189Z,16.33
2022-11-18T10:22:46.871Z,14.43
2022-11-18T10:24:51.945Z,16.90
2022-11-18T10:26:59.176Z,15.80
2022-11-18T10:29:01.298Z,16.57
2022-11-18T10:31:08.691Z,16.63
2022-11-18T10:33:22.990Z,17.23
2022-11-18T10:35:28.413Z,14.40
2022-11-18T10:38:06.283Z,18.83
2022-11-18T10:40:03.587Z,13.60
2022-11-18T10:42:06.698Z,15.00
2022-11-18T10:44:27.700Z,15.80
2022-11-18T10:46:35.426Z,15.40
2022-11-18T10:48:37.400Z,15.70
2022-11-18T10:50:45.332Z,17.60
2022-11-18T10:52:53.700Z,16.33
2022-11-18T10:55:20.098Z,15.67
2022-11-18T10:57:23.642Z,15.10
2022-11-18T10:59:33.050Z,16.87
2022-11-18T11:01:35.132Z,18.37
2022-11-18T11:03:42.581Z,18.10
2022-11-18T11:05:44.561Z,17.53
2022-11-18T11:07:46.740Z,15.10
2022-11-18T11:10:05.285Z,18.87
2022-11-18T11:12:14.275Z,17.33
2022-11-18T11:14:22.605Z,19.50
2022-11-18T11:16:26.680Z,17.83
2022-11-18T11:18:42.751Z,18.70
2022-11-18T11:20:44.933Z,18.53
2022-11-18T11:22:46.928Z,21.50
2022-11-18T11:24:49.060Z,18.90
2022-11-18T11:29:40.143Z,21.53
2022-11-18T11:31:55.174Z,25.17
2022-11-18T11:34:05.605Z,22.57
2022-11-18T11:36:48.964Z,24.60
2022-11-18T11:39:12.295Z,23.43
2022-11-18T11:41:24.148Z,24.33
2022-11-18T11:43:44.182Z,26.10
2022-11-18T11:46:22.399Z,21.67
2022-11-18T11:48:39.548Z,27.57
2022-11-18T11:51:03.298Z,21.17
2022-11-18T11:53:22.598Z,25.47
2022-11-18T11:55:42.828Z,24.00
2022-11-18T11:58:11.819Z,24.00
2022-11-18T12:00:18.553Z,26.50
2022-11-18T12:02:45.680Z,22.43
2022-11-18T12:04:57.818Z,21.70
2022-11-18T12:07:00.485Z,23.07
2022-11-18T12:09:07.511Z,23.97
2022-11-18T12:11:22.946Z,23.20
2022-11-18T12:13:43.923Z,23.80
2022-11-18T12:16:01.231Z,27.87
2022-11-18T12:18:40.767Z,27.17
2022-11-18T12:20:48.296Z,26.47
2022-11-18T12:23:12.973Z,27.13
2022-11-18T12:25:53.005Z,28.80
2022-11-18T12:27:59.407Z,30.37
2022-11-18T12:30:03.827Z,26.20
2022-11-18T12:32:45.318Z,32.00
2022-11-18T12:34:57.120Z,27.90
2022-11-18T12:37:21.919Z,29.10
2022-11-18T12:39:26.099Z,27.10
2022-11-18T12:42:12.233Z,29.23
2022-11-18T12:44:23.366Z,28.63
2022-11-18T12:46:40.159Z,30.00
2022-11-18T12:48:46.521Z,26.07
2022-11-18T12:51:12.912Z,31.70
2022-11-18T12:53:37.255Z,31.30
2022-11-18T12:55:39.331Z,27.20
2022-11-18T12:57:41.717Z,26.73
2022-11-18T12:59:43.805Z,26.77
2022-11-18T13:01:45.820Z,31.27
2022-11-18T13:03:47.923Z,29.33
2022-11-18T13:05:50.343Z,28.50
2022-11-18T13:08:14.242Z,26.97
2022-11-18T13:10:24.301Z,24.60
2022-11-18T13:12:27.726Z,28.17
2022-11-18T13:15:03.195Z,26.60
2022-11-18T13:17:48.675Z,25.63
2022-11-18T13:19:59.803Z,25.17
2022-11-18T13:22:21.001Z,23.27
2022-11-18T13:24:23.336Z,25.73
2022-11-18T13:26:28.672Z,26.40
2022-11-18T13:28:38.611Z,23.00
2022-11-18T13:30:50.800Z,28.10
2022-11-18T13:32:54.711Z,27.23
2022-11-18T13:35:13.859Z,26.73
2022-11-18T13:37:21.872Z,27.70
2022-11-18T13:39:29.280Z,25.40
2022-11-18T13:41:34.441Z,24.20
2022-11-18T13:43:36.896Z,29.47
2022-11-18T13:45:39.461Z,24.87
2022-11-18T13:47:50.498Z,24.83
2022-11-18T13:50:10.840Z,24.30
2022-11-18T13:52:20.444Z,28.03
2022-11-18T13:54:25.802Z,22.70
2022-11-18T13:56:34.502Z,24.60
2022-11-18T14:01:12.723Z,22.83
2022-11-18T14:03:24.717Z,25.57
2022-11-18T14:05:27.087Z,23.30
2022-11-18T14:07:32.362Z,24.23
2022-11-18T14:09:34.572Z,24.70
2022-11-18T14:12:14.738Z,26.20
2022-11-18T14:14:28.759Z,20.73
2022-11-18T14:16:36.450Z,22.47
2022-11-18T14:18:39.291Z,19.50
2022-11-18T14:20:50.430Z,24.67
2022-11-18T14:22:58.480Z,22.60
2022-11-18T14:25:03.963Z,21.97
2022-11-18T14:27:38.566Z,23.27
2022-11-18T14:29:49.656Z,20.10
2022-11-18T14:32:13.181Z,21.60
2022-11-18T14:34:24.970Z,24.47
2022-11-18T14:36:27.279Z,22.40
2022-11-18T14:38:41.139Z,23.63
2022-11-18T14:40:59.946Z,21.03
2022-11-18T14:43:02.179Z,23.07
2022-11-18T14:45:04.353Z,23.43
2022-11-18T14:47:27.614Z,20.37
2022-11-18T14:49:31.612Z,21.20
2022-11-18T14:51:33.618Z,19.40
2022-11-18T14:53:35.583Z,20.73
2022-11-18T14:55:37.604Z,21.90
2022-11-18T14:57:39.634Z,19.83
2022-11-18T14:59:41.776Z,20.67
2022-11-18T15:01:44.818Z,21.23
2022-11-18T15:03:47.167Z,20.10
2022-11-18T15:05:49.320Z,22.47
2022-11-18T15:07:51.386Z,20.90
2022-11-18T15:09:53.402Z,21.53
2022-11-18T15:11:55.440Z,20.33
2022-11-18T15:13:57.505Z,22.63
2022-11-18T15:15:59.613Z,23.53
2022-11-18T15:18:01.697Z,22.73
2022-11-18T15:20:04.532Z,22.23
2022-11-18T15:22:06.543Z,21.97
2022-11-18T15:24:08.727Z,23.70
2022-11-18T15:26:25.020Z,21.93
2022-11-18T15:28:27.407Z,22.30
2022-11-18T15:30:29.488Z,19.40
2022-11-18T15:32:31.831Z,20.83
2022-11-18T15:34:33.841Z,23.40
2022-11-18T15:36:36.405Z,24.60
2022-11-18T15:38:38.507Z,20.40
2022-11-18T15:40:40.678Z,22.60
2022-11-18T15:42:51.556Z,21.03
2022-11-18T15:44:54.568Z,22.30
2022-11-18T15:46:57.279Z,22.50
2022-11-18T15:49:00.083Z,21.43
2022-11-18T15:51:04.436Z,22.90
2022-11-18T15:53:09.608Z,21.23
2022-11-18T15:55:11.618Z,21.70
2022-11-18T15:57:13.915Z,23.00
2022-11-18T15:59:16.383Z,22.70
2022-11-18T16:01:19.049Z,24.87
2022-11-18T16:03:21.101Z,23.60
2022-11-18T16:05:23.130Z,21.33
2022-11-18T16:07:25.214Z,21.03
2022-11-18T16:09:47.202Z,21.23
2022-11-18T16:12:07.526Z,22.13
2022-11-18T16:14:11.693Z,18.20
2022-11-18T16:16:21.170Z,20.27
2022-11-18T16:18:23.171Z,19.37
2022-11-18T16:20:27.090Z,17.00
2022-11-18T16:22:29.128Z,19.23
2022-11-18T16:24:31.660Z,18.00
2022-11-18T16:26:34.328Z,19.00
2022-11-18T16:28:36.390Z,18.70
2022-11-18T16:30:57.172Z,20.17
2022-11-18T16:33:00.121Z,19.80
2022-11-18T16:35:02.107Z,20.63
2022-11-18T16:37:06.185Z,19.60
2022-11-18T16:39:09.810Z,20.30
2022-11-18T16:41:30.297Z,20.80
2022-11-18T16:43:32.260Z,18.40
2022-11-18T16:45:34.343Z,20.10
2022-11-18T16:47:38.444Z,18.90
2022-11-18T16:49:40.612Z,19.50
2022-11-18T16:51:44.271Z,19.27
2022-11-18T16:53:56.452Z,15.70
2022-11-18T16:56:03.299Z,17.37
2022-11-18T16:58:05.275Z,17.73
2022-11-18T17:00:07.983Z,17.60
2022-11-18T17:02:12.872Z,16.93
2022-11-18T17:04:15.231Z,17.63
2022-11-18T17:06:17.249Z,17.60
2022-11-18T17:08:19.228Z,17.97
2022-11-18T17:10:21.413Z,19.03
2022-11-18T17:12:23.405Z,20.37
2022-11-18T17:14:25.929Z,16.47
2022-11-18T17:16:28.143Z,20.30
2022-11-18T17:18:30.107Z,16.60
2022-11-18T17:20:32.051Z,15.27
2022-11-18T17:22:34.103Z,12.00
2022-11-18T17:24:36.131Z,16.23
2022-11-18T17:26:38.148Z,14.63
2022-11-18T17:28:40.320Z,13.70
2022-11-18T17:30:47.103Z,14.50
2022-11-18T17:32:51.760Z,15.20
2022-11-18T17:34:53.748Z,16.10
2022-11-18T17:36:55.767Z,15.27
2022-11-18T17:38:59.544Z,15.97
2022-11-18T17:41:01.864Z,14.90
2022-11-18T17:43:03.895Z,13.50
2022-11-18T17:45:06.473Z,13.80
2022-11-18T17:47:08.524Z,15.37
2022-11-18T17:49:15.632Z,15.10
2022-11-18T17:51:17.592Z,13.97
2022-11-18T17:53:20.653Z,14.63
2022-11-18T17:55:22.743Z,14.80
2022-11-18T17:57:24.721Z,14.10
2022-11-18T17:59:26.782Z,14.53
2022-11-18T18:01:28.870Z,13.60
2022-11-18T18:03:30.946Z,14.43
2022-11-18T18:05:32.953Z,13.50
2022-11-18T18:07:34.941Z,12.77
2022-11-18T18:09:37.968Z,12.93
2022-11-18T18:11:40.014Z,13.40
2022-11-18T18:14:01.193Z,12.57
2022-11-18T18:16:03.354Z,11.70
2022-11-18T18:18:06.302Z,12.77
2022-11-18T18:20:08.585Z,11.00
2022-11-18T18:22:10.576Z,11.10
2022-11-18T18:24:14.746Z,11.47
2022-11-18T18:26:17.017Z,10.63
2022-11-18T18:28:19.255Z,10.87
2022-11-18T18:30:21.334Z,10.80
2022-11-18T18:32:23.416Z,12.00
2022-11-18T18:34:25.447Z,10.37
2022-11-18T18:36:27.711Z,9.83
2022-11-18T18:38:32.826Z,10.40
2022-11-18T18:40:35.064Z,9.97
2022-11-18T18:42:36.996Z,10.47
2022-11-18T18:44:57.788Z,9.97
2022-11-18T18:46:59.880Z,9.47
2022-11-18T18:49:09.960Z,9.80
2022-11-18T18:51:11.958Z,9.70
2022-11-18T18:53:14.614Z,9.43
2022-11-18T18:55:16.691Z,10.13
2022-11-18T18:57:18.681Z,9.80
2022-11-18T18:59:20.890Z,8.20
2022-11-18T19:01:23.079Z,9.23
2022-11-18T19:03:25.045Z,9.77
2022-11-18T19:05:53.564Z,9.70
2022-11-18T19:07:50.694Z,9.10
2022-11-18T19:09:52.779Z,9.00
2022-11-18T19:12:13.587Z,8.97
2022-11-18T19:14:18.103Z,8.80
2022-11-18T19:16:20.209Z,9.30
2022-11-18T19:18:24.249Z,8.30
2022-11-18T19:20:36.559Z,9.37
2022-11-18T19:22:38.585Z,9.13
2022-11-18T19:27:03.947Z,8.80
2022-11-18T19:29:06.043Z,10.20
2022-11-18T19:31:09.342Z,8.53
2022-11-18T19:33:12.907Z,10.13
2022-11-18T19:35:15.017Z,10.50
2022-11-18T19:37:17.105Z,8.83
2022-11-18T19:39:19.651Z,9.83
2022-11-18T19:41:21.849Z,9.00
2022-11-18T19:43:23.830Z,9.03
2022-11-18T19:45:25.929Z,9.33
2022-11-18T19:47:27.936Z,8.37
2022-11-18T19:49:29.914Z,10.03
2022-11-18T19:51:32.723Z,8.43
2022-11-18T19:53:35.968Z,8.47
2022-11-18T19:55:37.958Z,9.43
2022-11-18T19:57:40.181Z,7.40
2022-11-18T19:59:42.186Z,9.20
2022-11-18T20:01:44.466Z,8.43
2022-11-18T20:03:47.531Z,8.53
2022-11-18T20:05:52.294Z,9.60
2022-11-18T20:07:55.880Z,8.70
2022-11-18T20:09:58.004Z,9.33
2022-11-18T20:12:00.009Z,8.23
2022-11-18T20:14:02.259Z,8.00
2022-11-18T20:16:09.317Z,9.30
2022-11-18T20:18:11.587Z,9.00
2022-11-18T20:20:13.629Z,8.60
2022-11-18T20:22:15.615Z,8.50
2022-11-18T20:24:19.051Z,8.07
2022-11-18T20:26:23.234Z,9.03
2022-11-18T20:28:25.159Z,9.27
2022-11-18T20:30:27.143Z,9.07
2022-11-18T20:32:29.109Z,9.50
2022-11-18T20:34:31.255Z,9.13
2022-11-18T20:36:35.789Z,9.20
2022-11-18T20:38:38.613Z,8.40
2022-11-18T20:40:40.649Z,8.93
2022-11-18T20:43:01.567Z,8.80
2022-11-18T20:45:03.882Z,9.30
2022-11-18T20:47:05.983Z,11.00
2022-11-18T20:49:07.963Z,12.00
2022-11-18T20:51:15.086Z,10.30
2022-11-18T20:53:17.185Z,13.60
2022-11-18T20:55:19.202Z,11.83
2022-11-18T20:57:24.117Z,11.93
2022-11-18T20:59:26.208Z,11.63
2022-11-18T21:01:29.673Z,11.70
2022-11-18T21:03:32.007Z,11.87
2022-11-18T21:05:35.530Z,13.77
2022-11-18T21:07:37.578Z,11.83
2022-11-18T21:09:39.634Z,13.77
2022-11-18T21:11:41.636Z,14.83
2022-11-18T21:14:01.886Z,13.70
2022-11-18T21:16:04.191Z,14.60
2022-11-18T21:18:06.245Z,13.80
2022-11-18T21:20:28.834Z,12.73
2022-11-18T21:22:30.948Z,15.03
2022-11-18T21:24:34.790Z,15.40
2022-11-18T21:26:37.624Z,18.00
2022-11-18T21:28:39.551Z,17.83
2022-11-18T21:30:41.507Z,17.00
2022-11-18T21:32:43.538Z,14.93
2022-11-18T21:34:45.491Z,13.63
2022-11-18T21:36:51.625Z,13.00
2022-11-18T21:39:00.260Z,12.40
2022-11-18T21:41:04.141Z,13.83
2022-11-18T21:43:06.196Z,11.63
2022-11-18T21:45:08.989Z,13.30
2022-11-18T21:47:11.015Z,12.57
2022-11-18T21:49:13.163Z,13.77
2022-11-18T21:51:17.694Z,12.90
2022-11-18T21:53:20.149Z,14.47
2022-11-18T21:55:22.309Z,12.83
2022-11-18T21:57:24.786Z,12.63
2022-11-18T21:59:26.935Z,13.47
2022-11-18T22:01:31.678Z,12.60
2022-11-18T22:03:33.913Z,11.83
2022-11-18T22:05:36.270Z,12.30
2022-11-18T22:07:38.411Z,11.43
2022-11-18T22:09:40.622Z,11.87
2022-11-18T22:11:42.747Z,10.43
2022-11-18T22:13:44.910Z,10.87
2022-11-18T22:15:47.492Z,11.80
2022-11-18T22:17:49.638Z,10.60
2022-11-18T22:19:51.783Z,11.23
2022-11-18T22:21:53.985Z,10.97
2022-11-18T22:24:00.584Z,11.90
2022-11-18T22:26:06.725Z,11.80
2022-11-18T22:28:08.867Z,12.13
2022-11-18T22:30:11.367Z,10.80
2022-11-18T22:32:13.457Z,11.27
2022-11-18T22:34:15.593Z,11.50
2022-11-18T22:36:20.082Z,10.23
2022-11-18T22:38:22.234Z,10.27
2022-11-18T22:40:24.366Z,11.50
2022-11-18T22:42:45.154Z,10.03
2022-11-18T22:44:47.510Z,9.77
2022-11-18T22:46:49.700Z,10.40
2022-11-18T22:48:51.945Z,11.20
2022-11-18T22:51:02.245Z,10.33
2022-11-18T22:53:04.513Z,10.00
2022-11-18T22:55:07.178Z,11.20
2022-11-18T22:57:09.285Z,11.23
2022-11-18T22:59:12.355Z,11.70
2022-11-18T23:01:19.800Z,13.10
2022-11-18T23:03:21.929Z,12.83
2022-11-18T23:05:24.042Z,14.33
2022-11-18T23:07:26.314Z,12.90
2022-11-18T23:09:28.474Z,11.70
2022-11-18T23:11:49.889Z,12.67
2022-11-18T23:14:03.841Z,11.30
2022-11-18T23:16:06.147Z,11.10
2022-11-18T23:18:11.533Z,11.27
2022-11-18T23:20:14.102Z,10.33
2022-11-18T23:22:16.399Z,12.00
2022-11-18T23:24:19.373Z,12.10
2022-11-18T23:26:21.778Z,11.50
2022-11-18T23:28:24.083Z,11.03
2022-11-18T23:30:26.170Z,11.40
2022-11-18T23:32:28.318Z,12.07
2022-11-18T23:34:30.456Z,10.00
2022-11-18T23:36:32.595Z,9.53
2022-11-18T23:38:35.558Z,11.60
2022-11-18T23:40:37.720Z,10.50
2022-11-18T23:42:39.825Z,11.60
2022-11-18T23:44:45.181Z,11.40
2022-11-18T23:46:47.325Z,11.73
2022-11-18T23:48:49.443Z,11.80
2022-11-18T23:50:54.791Z,10.50
2022-11-18T23:52:56.878Z,12.13
2022-11-18T23:55:01.375Z,13.20
2022-11-18T23:57:05.247Z,14.17
2022-11-18T23:59:07.617Z,17.50
